createdAt,value
2023-11-20T00:00:54.252Z,98906.00
2023-11-20T00:03:25.266Z,98915.03
2023-11-20T00:05:53.723Z,98901.78
2023-11-20T00:08:22.058Z,98901.22
2023-11-20T00:10:50.458Z,98907.78
2023-11-20T00:13:18.812Z,98908.88
2023-11-20T00:15:47.188Z,98923.19
2023-11-20T00:18:15.558Z,98924.53
2023-11-20T00:20:45.626Z,98933.03
2023-11-20T00:23:14.293Z,98926.94
2023-11-20T00:25:43.116Z,98921.13
2023-11-20T00:28:11.502Z,98930.47
2023-11-20T00:30:39.962Z,98934.88
2023-11-20T00:33:08.376Z,98941.75
2023-11-20T00:35:36.736Z,98930.13
2023-11-20T00:38:06.504Z,98944.72
2023-11-20T00:40:35.208Z,98944.44
2023-11-20T00:43:04.660Z,98939.16
2023-11-20T00:45:33.050Z,98936.66
2023-11-20T00:48:01.401Z,98938.00
2023-11-20T00:50:29.786Z,98939.34
2023-11-20T00:52:58.110Z,98929.66
2023-11-20T00:55:28.414Z,98928.88
2023-11-20T00:57:56.798Z,98939.34
2023-11-20T01:00:26.147Z,98944.63
2023-11-20T01:02:54.649Z,98947.09
2023-11-20T01:05:24.045Z,98928.09
2023-11-20T01:07:52.481Z,98926.44
2023-11-20T01:10:21.029Z,98926.72
2023-11-20T01:12:50.731Z,98934.19
2023-11-20T01:15:19.234Z,98922.63
2023-11-20T01:17:47.727Z,98935.59
2023-11-20T01:20:16.185Z,98932.03
2023-11-20T01:22:44.523Z,98925.69
2023-11-20T01:25:13.059Z,98921.56
2023-11-20T01:27:41.713Z,98920.16
2023-11-20T01:30:12.477Z,98910.25
2023-11-20T01:32:40.905Z,98902.78
2023-11-20T01:35:10.775Z,98909.41
2023-11-20T01:37:39.209Z,98912.47
2023-11-20T01:40:09.589Z,98906.44
2023-11-20T01:42:38.000Z,98893.22
2023-11-20T01:45:10.813Z,98904.53
2023-11-20T01:47:41.042Z,98896.84
2023-11-20T01:50:13.286Z,98886.13
2023-11-20T01:52:45.806Z,98882.00
2023-11-20T01:55:15.988Z,98872.38
2023-11-20T01:57:48.841Z,98870.50
2023-11-20T02:00:20.753Z,98881.31
2023-11-20T02:02:51.871Z,98865.66
2023-11-20T02:05:20.709Z,98867.31
2023-11-20T02:07:49.056Z,98867.91
2023-11-20T02:10:19.133Z,98863.78
2023-11-20T02:12:48.090Z,98862.41
2023-11-20T02:15:16.645Z,98851.13
2023-11-20T02:17:44.995Z,98856.94
2023-11-20T02:20:14.867Z,98845.97
2023-11-20T02:22:43.203Z,98843.78
2023-11-20T02:25:11.802Z,98858.16
2023-11-20T02:27:54.377Z,98858.72
2023-11-20T02:30:24.918Z,98858.72
2023-11-20T02:32:53.278Z,98860.66
2023-11-20T02:35:21.840Z,98852.69
2023-11-20T02:37:50.149Z,98856.53
2023-11-20T02:40:18.634Z,98845.53
2023-11-20T02:42:47.216Z,98849.94
2023-11-20T02:45:15.767Z,98857.38
2023-11-20T02:47:45.467Z,98848.00
2023-11-20T02:50:14.621Z,98842.19
2023-11-20T02:52:42.964Z,98848.25
2023-11-20T02:55:11.377Z,98839.72
2023-11-20T02:57:39.881Z,98830.31
2023-11-20T03:00:13.367Z,98837.47
2023-11-20T03:02:42.052Z,98836.09
2023-11-20T03:05:12.146Z,98840.75
2023-11-20T03:07:40.495Z,98836.09
2023-11-20T03:10:10.167Z,98837.19
2023-11-20T03:12:38.586Z,98828.63
2023-11-20T03:15:08.718Z,98826.41
2023-11-20T03:17:37.166Z,98835.22
2023-11-20T03:20:07.486Z,98824.72
2023-11-20T03:22:37.334Z,98828.00
2023-11-20T03:25:07.671Z,98812.00
2023-11-20T03:27:36.114Z,98829.06
2023-11-20T03:30:04.808Z,98830.72
2023-11-20T03:32:33.469Z,98822.19
2023-11-20T03:35:01.854Z,98820.78
2023-11-20T03:37:30.293Z,98824.06
2023-11-20T03:40:00.237Z,98810.28
2023-11-20T03:42:28.692Z,98817.97
2023-11-20T03:44:57.018Z,98801.13
2023-11-20T03:47:25.349Z,98810.75
2023-11-20T03:49:53.736Z,98793.13
2023-11-20T03:52:22.085Z,98796.66
2023-11-20T03:54:50.524Z,98789.53
2023-11-20T03:57:20.276Z,98780.44
2023-11-20T03:59:48.849Z,98793.69
2023-11-20T04:02:18.274Z,98776.34
2023-11-20T04:04:46.773Z,98782.16
2023-11-20T04:07:16.065Z,98772.75
2023-11-20T04:09:44.451Z,98768.38
2023-11-20T04:12:12.861Z,98773.56
2023-11-20T04:14:42.552Z,98746.84
2023-11-20T04:17:10.944Z,98760.31
2023-11-20T04:19:39.715Z,98772.16
2023-11-20T04:22:08.662Z,98771.88
2023-11-20T04:24:37.420Z,98775.16
2023-11-20T04:27:06.420Z,98769.38
2023-11-20T04:29:35.530Z,98772.66
2023-11-20T04:32:06.236Z,98763.50
2023-11-20T04:34:34.565Z,98756.00
2023-11-20T04:37:02.981Z,98766.66
2023-11-20T04:39:31.494Z,98763.84
2023-11-20T04:42:01.414Z,98759.88
2023-11-20T04:44:29.846Z,98751.56
2023-11-20T04:46:58.278Z,98750.34
2023-11-20T04:49:28.012Z,98747.53
2023-11-20T04:51:57.016Z,98744.41
2023-11-20T04:54:25.576Z,98736.38
2023-11-20T04:56:53.899Z,98733.50
2023-11-20T04:59:22.303Z,98751.94
2023-11-20T05:01:51.313Z,98735.31
2023-11-20T05:04:19.774Z,98727.78
2023-11-20T05:06:49.550Z,98742.91
2023-11-20T05:09:19.092Z,98739.03
2023-11-20T05:11:48.247Z,98735.97
2023-11-20T05:14:16.777Z,98739.03
2023-11-20T05:16:45.168Z,98745.38
2023-11-20T05:19:13.710Z,98735.16
2023-11-20T05:21:46.237Z,98735.16
2023-11-20T05:24:16.283Z,98738.75
2023-11-20T05:26:44.617Z,98749.16
2023-11-20T05:29:13.367Z,98746.41
2023-11-20T05:31:42.041Z,98753.25
2023-11-20T05:34:10.416Z,98756.84
2023-11-20T05:36:38.840Z,98753.78
2023-11-20T05:39:07.477Z,98754.59
2023-11-20T05:41:37.189Z,98756.53
2023-11-20T05:44:06.049Z,98756.53
2023-11-20T05:46:34.395Z,98755.44
2023-11-20T05:49:03.550Z,98763.41
2023-11-20T05:51:32.060Z,98763.41
2023-11-20T05:54:00.707Z,98765.34
2023-11-20T05:56:31.825Z,98743.25
2023-11-20T05:59:04.201Z,98757.88
2023-11-20T06:01:39.895Z,98751.84
2023-11-20T06:04:10.833Z,98755.44
2023-11-20T06:06:41.101Z,98752.69
2023-11-20T06:09:12.022Z,98759.03
2023-11-20T06:11:43.747Z,98761.47
2023-11-20T06:14:13.792Z,98748.78
2023-11-20T06:16:42.228Z,98752.88
2023-11-20T06:19:10.799Z,98766.41
2023-11-20T06:21:47.373Z,98763.63
2023-11-20T06:24:17.664Z,98781.25
2023-11-20T06:26:46.024Z,98780.69
2023-11-20T06:29:16.197Z,98774.84
2023-11-20T06:31:44.579Z,98788.06
2023-11-20T06:34:13.077Z,98789.09
2023-11-20T06:36:41.572Z,98783.25
2023-11-20T06:39:10.251Z,98787.38
2023-11-20T06:41:40.386Z,98780.72
2023-11-20T06:44:08.790Z,98801.41
2023-11-20T06:46:38.691Z,98795.56
2023-11-20T06:49:07.134Z,98797.75
2023-11-20T06:51:35.526Z,98802.94
2023-11-20T06:54:03.874Z,98808.16
2023-11-20T06:56:33.141Z,98811.75
2023-11-20T06:59:01.493Z,98802.63
2023-11-20T07:01:29.936Z,98822.72
2023-11-20T07:04:00.542Z,98818.22
2023-11-20T07:06:29.040Z,98822.03
2023-11-20T07:08:57.971Z,98820.00
2023-11-20T07:11:26.378Z,98811.31
2023-11-20T07:13:54.827Z,98810.94
2023-11-20T07:16:23.295Z,98816.09
2023-11-20T07:18:51.722Z,98816.81
2023-11-20T07:21:21.515Z,98823.34
2023-11-20T07:23:49.856Z,98819.16
2023-11-20T07:26:19.348Z,98823.59
2023-11-20T07:28:48.387Z,98816.13
2023-11-20T07:31:27.033Z,98815.56
2023-11-20T07:33:55.569Z,98824.41
2023-11-20T07:36:25.910Z,98826.34
2023-11-20T07:38:54.456Z,98813.63
2023-11-20T07:41:22.866Z,98826.63
2023-11-20T07:43:51.265Z,98823.88
2023-11-20T07:46:19.791Z,98830.22
2023-11-20T07:48:48.266Z,98836.25
2023-11-20T07:51:16.635Z,98835.97
2023-11-20T07:53:46.474Z,98828.72
2023-11-20T07:56:14.856Z,98819.50
2023-11-20T07:58:43.209Z,98819.09
2023-11-20T08:01:11.752Z,98821.16
2023-11-20T08:03:40.194Z,98819.66
2023-11-20T08:06:16.826Z,98815.69
2023-11-20T08:08:50.920Z,98822.22
2023-11-20T08:11:19.724Z,98809.41
2023-11-20T08:13:48.658Z,98809.13
2023-11-20T08:16:17.181Z,98809.63
2023-11-20T08:18:45.667Z,98822.66
2023-11-20T08:21:14.097Z,98821.31
2023-11-20T08:23:42.508Z,98821.63
2023-11-20T08:26:14.582Z,98818.34
2023-11-20T08:28:43.061Z,98820.28
2023-11-20T08:31:11.603Z,98837.72
2023-11-20T08:33:40.038Z,98834.94
2023-11-20T08:36:10.333Z,98829.91
2023-11-20T08:38:38.860Z,98822.66
2023-11-20T08:41:07.339Z,98815.06
2023-11-20T08:43:37.259Z,98815.78
2023-11-20T08:46:13.092Z,98805.09
2023-11-20T08:48:44.249Z,98803.25
2023-11-20T08:51:12.645Z,98803.16
2023-11-20T08:53:41.076Z,98793.50
2023-11-20T08:56:10.036Z,98804.63
2023-11-20T08:58:39.761Z,98805.03
2023-11-20T09:01:08.366Z,98797.81
2023-11-20T09:03:36.816Z,98798.44
2023-11-20T09:06:05.856Z,98793.28
2023-11-20T09:08:34.290Z,98794.59
2023-11-20T09:11:03.560Z,98812.53
2023-11-20T09:13:32.062Z,98802.78
2023-11-20T09:16:01.950Z,98807.06
2023-11-20T09:18:30.584Z,98796.06
2023-11-20T09:21:03.325Z,98784.53
2023-11-20T09:23:32.147Z,98785.41
2023-11-20T09:26:00.678Z,98801.59
2023-11-20T09:28:29.622Z,98796.53
2023-11-20T09:30:58.018Z,98782.56
2023-11-20T09:33:27.821Z,98784.38
2023-11-20T09:35:56.331Z,98782.44
2023-11-20T09:38:24.676Z,98794.00
2023-11-20T09:40:54.226Z,98785.19
2023-11-20T09:43:24.901Z,98768.38
2023-11-20T09:46:00.654Z,98793.16
2023-11-20T09:48:35.254Z,98792.50
2023-11-20T09:51:12.267Z,98784.69
2023-11-20T09:53:43.527Z,98783.75
2023-11-20T09:56:14.950Z,98791.09
2023-11-20T09:58:44.148Z,98801.88
2023-11-20T10:01:15.598Z,98796.81
2023-11-20T10:03:46.999Z,98803.34
2023-11-20T10:06:20.199Z,98796.06
2023-11-20T10:08:49.248Z,98794.28
2023-11-20T10:11:23.064Z,98811.44
2023-11-20T10:13:51.900Z,98795.16
2023-11-20T10:16:24.659Z,98793.38
2023-11-20T10:18:55.088Z,98801.56
2023-11-20T10:21:24.095Z,98790.63
2023-11-20T10:23:56.127Z,98782.00
2023-11-20T10:26:25.783Z,98786.09
2023-11-20T10:28:56.552Z,98787.41
2023-11-20T10:31:26.481Z,98782.03
2023-11-20T10:34:08.273Z,98778.94
2023-11-20T10:36:37.132Z,98770.66
2023-11-20T10:39:08.692Z,98775.38
2023-11-20T10:41:43.075Z,98772.31
2023-11-20T10:44:11.519Z,98766.63
2023-11-20T10:46:43.127Z,98768.28
2023-11-20T10:49:15.344Z,98753.44
2023-11-20T10:51:50.313Z,98749.78
2023-11-20T10:54:27.536Z,98737.16
2023-11-20T10:57:02.691Z,98738.78
2023-11-20T10:59:35.567Z,98728.81
2023-11-20T11:02:11.582Z,98722.88
2023-11-20T11:04:41.686Z,98721.41
2023-11-20T11:07:14.070Z,98712.28
2023-11-20T11:09:45.653Z,98715.84
2023-11-20T11:12:17.187Z,98714.78
2023-11-20T11:14:46.345Z,98715.28
2023-11-20T11:17:22.514Z,98714.84
2023-11-20T11:20:03.035Z,98710.97
2023-11-20T11:25:12.349Z,98720.09
2023-11-20T11:27:51.872Z,98714.00
2023-11-20T11:30:22.974Z,98710.16
2023-11-20T11:33:21.085Z,98711.78
2023-11-20T11:36:21.803Z,98696.25
2023-11-20T11:39:17.252Z,98691.53
2023-11-20T11:42:04.809Z,98683.66
2023-11-20T11:44:49.056Z,98689.59
2023-11-20T11:47:17.829Z,98675.41
2023-11-20T11:49:50.962Z,98681.94
2023-11-20T11:52:28.921Z,98676.06
2023-11-20T11:55:26.824Z,98677.41
2023-11-20T11:58:03.233Z,98682.16
2023-11-20T12:00:33.555Z,98666.31
2023-11-20T12:03:10.184Z,98667.22
2023-11-20T12:06:16.064Z,98676.59
2023-11-20T12:08:50.147Z,98683.28
2023-11-20T12:11:50.321Z,98678.22
2023-11-20T12:14:18.788Z,98680.75
2023-11-20T12:16:47.325Z,98688.63
2023-11-20T12:19:17.917Z,98676.53
2023-11-20T12:21:46.420Z,98678.25
2023-11-20T12:24:16.250Z,98674.84
2023-11-20T12:26:44.868Z,98663.47
2023-11-20T12:29:14.999Z,98671.84
2023-11-20T12:31:43.708Z,98670.13
2023-11-20T12:34:12.201Z,98670.81
2023-11-20T12:36:40.794Z,98653.69
2023-11-20T12:39:11.456Z,98666.56
2023-11-20T12:41:42.081Z,98654.53
2023-11-20T12:44:10.952Z,98664.34
2023-11-20T12:46:40.387Z,98666.06
2023-11-20T12:49:09.004Z,98659.34
2023-11-20T12:51:38.610Z,98651.25
2023-11-20T12:54:07.870Z,98666.00
2023-11-20T12:56:36.491Z,98658.88
2023-11-20T12:59:07.707Z,98673.16
2023-11-20T13:01:36.415Z,98656.78
2023-11-20T13:04:07.675Z,98661.78
2023-11-20T13:06:36.616Z,98648.03
2023-11-20T13:09:08.103Z,98661.75
2023-11-20T13:11:37.814Z,98663.00
2023-11-20T13:14:08.466Z,98652.25
2023-11-20T13:16:40.034Z,98648.75
2023-11-20T13:19:10.838Z,98653.38
2023-11-20T13:21:39.324Z,98663.88
2023-11-20T13:24:10.980Z,98661.75
2023-11-20T13:26:45.204Z,98656.53
2023-11-20T13:29:15.100Z,98663.72
2023-11-20T13:31:43.530Z,98644.28
2023-11-20T13:34:12.140Z,98656.72
2023-11-20T13:36:41.365Z,98657.50
2023-11-20T13:39:20.214Z,98659.13
2023-11-20T13:41:51.305Z,98654.91
2023-11-20T13:44:21.067Z,98647.88
2023-11-20T13:46:51.081Z,98660.47
2023-11-20T13:49:20.183Z,98650.50
2023-11-20T13:51:48.653Z,98662.75
2023-11-20T13:54:17.051Z,98664.22
2023-11-20T13:56:45.679Z,98671.72
2023-11-20T13:59:14.138Z,98673.38
2023-11-20T14:01:44.024Z,98671.38
2023-11-20T14:04:15.136Z,98680.53
2023-11-20T14:06:43.637Z,98676.94
2023-11-20T14:09:12.173Z,98668.78
2023-11-20T14:11:40.589Z,98669.72
2023-11-20T14:14:09.415Z,98667.13
2023-11-20T14:16:39.004Z,98666.78
2023-11-20T14:19:11.125Z,98656.97
2023-11-20T14:21:39.978Z,98653.56
2023-11-20T14:24:10.121Z,98653.22
2023-11-20T14:26:38.704Z,98651.69
2023-11-20T14:29:07.163Z,98652.16
2023-11-20T14:31:36.534Z,98659.00
2023-11-20T14:34:05.605Z,98658.66
2023-11-20T14:36:35.502Z,98660.72
2023-11-20T14:39:04.661Z,98660.09
2023-11-20T14:41:33.164Z,98664.63
2023-11-20T14:44:04.445Z,98666.72
2023-11-20T14:46:34.457Z,98656.59
2023-11-20T14:49:03.773Z,98666.84
2023-11-20T14:51:32.243Z,98667.19
2023-11-20T14:54:02.880Z,98665.53
2023-11-20T14:56:31.342Z,98671.06
2023-11-20T14:58:59.712Z,98664.53
2023-11-20T15:01:29.022Z,98671.03
2023-11-20T15:03:57.709Z,98672.81
2023-11-20T15:06:26.228Z,98671.00
2023-11-20T15:08:54.625Z,98684.66
2023-11-20T15:11:24.401Z,98683.47
2023-11-20T15:13:53.051Z,98678.59
2023-11-20T15:16:22.871Z,98672.03
2023-11-20T15:18:51.524Z,98682.94
2023-11-20T15:21:20.281Z,98688.28
2023-11-20T15:23:48.693Z,98685.28
2023-11-20T15:26:17.202Z,98685.91
2023-11-20T15:28:48.504Z,98686.22
2023-11-20T15:31:17.083Z,98689.00
2023-11-20T15:33:45.810Z,98675.78
2023-11-20T15:36:14.694Z,98679.81
2023-11-20T15:38:44.533Z,98686.63
2023-11-20T15:41:13.148Z,98687.38
2023-11-20T15:43:41.708Z,98685.03
2023-11-20T15:46:15.163Z,98697.38
2023-11-20T15:48:45.392Z,98688.97
2023-11-20T15:51:14.145Z,98697.41
2023-11-20T15:53:42.593Z,98699.78
2023-11-20T15:56:11.667Z,98702.66
2023-11-20T15:58:40.399Z,98705.53
2023-11-20T16:01:11.025Z,98701.25
2023-11-20T16:03:39.724Z,98708.50
2023-11-20T16:06:09.121Z,98698.38
2023-11-20T16:08:37.512Z,98708.44
2023-11-20T16:11:07.128Z,98696.03
2023-11-20T16:13:35.603Z,98693.09
2023-11-20T16:16:04.619Z,98693.69
2023-11-20T16:18:34.608Z,98693.47
2023-11-20T16:21:03.368Z,98696.84
2023-11-20T16:23:31.901Z,98695.00
2023-11-20T16:26:00.356Z,98703.09
2023-11-20T16:28:29.029Z,98702.06
2023-11-20T16:30:57.761Z,98699.91
2023-11-20T16:33:26.700Z,98699.41
2023-11-20T16:35:56.477Z,98695.00
2023-11-20T16:38:24.950Z,98697.47
2023-11-20T16:40:53.488Z,98699.72
2023-11-20T16:43:22.480Z,98696.13
2023-11-20T16:45:50.956Z,98699.50
2023-11-20T16:48:19.385Z,98688.25
2023-11-20T16:50:47.940Z,98696.63
2023-11-20T16:53:17.749Z,98685.69
2023-11-20T16:55:46.153Z,98696.03
2023-11-20T16:58:16.719Z,98696.94
2023-11-20T17:00:46.146Z,98694.78
2023-11-20T17:03:14.631Z,98687.91
2023-11-20T17:05:46.796Z,98692.44
2023-11-20T17:08:15.300Z,98681.69
2023-11-20T17:10:46.785Z,98684.81
2023-11-20T17:13:15.489Z,98685.47
2023-11-20T17:15:43.891Z,98694.34
2023-11-20T17:18:12.665Z,98690.25
2023-11-20T17:20:41.899Z,98696.91
2023-11-20T17:23:10.500Z,98705.47
2023-11-20T17:25:38.963Z,98707.41
2023-11-20T17:28:08.770Z,98704.13
2023-11-20T17:30:37.193Z,98709.13
2023-11-20T17:33:05.635Z,98706.69
2023-11-20T17:35:34.064Z,98707.00
2023-11-20T17:38:02.493Z,98710.88
2023-11-20T17:40:30.979Z,98713.41
2023-11-20T17:42:59.770Z,98722.31
2023-11-20T17:45:29.649Z,98717.69
2023-11-20T17:47:58.060Z,98711.66
2023-11-20T17:50:27.242Z,98710.31
2023-11-20T17:52:55.687Z,98709.22
2023-11-20T17:55:24.099Z,98716.22
2023-11-20T17:57:52.517Z,98716.47
2023-11-20T18:00:21.494Z,98719.03
2023-11-20T18:02:51.630Z,98719.63
2023-11-20T18:05:20.515Z,98715.25
2023-11-20T18:07:49.424Z,98720.22
2023-11-20T18:10:18.197Z,98717.25
2023-11-20T18:12:46.757Z,98722.25
2023-11-20T18:15:15.562Z,98723.38
2023-11-20T18:17:45.165Z,98719.25
2023-11-20T18:20:15.778Z,98715.16
2023-11-20T18:22:44.589Z,98727.34
2023-11-20T18:25:13.739Z,98721.31
2023-11-20T18:27:42.760Z,98722.72
2023-11-20T18:30:12.912Z,98721.38
2023-11-20T18:32:43.072Z,98724.44
2023-11-20T18:35:11.805Z,98718.09
2023-11-20T18:37:43.906Z,98714.81
2023-11-20T18:40:15.901Z,98718.69
2023-11-20T18:42:46.226Z,98723.69
2023-11-20T18:45:17.164Z,98719.56
2023-11-20T18:47:48.356Z,98719.88
2023-11-20T18:50:17.146Z,98720.47
2023-11-20T18:52:47.967Z,98721.56
2023-11-20T18:55:17.392Z,98728.53
2023-11-20T18:57:51.501Z,98734.34
2023-11-20T19:00:23.786Z,98732.19
2023-11-20T19:02:54.127Z,98731.94
2023-11-20T19:05:23.607Z,98740.81
2023-11-20T19:07:54.728Z,98738.66
2023-11-20T19:10:23.388Z,98743.34
2023-11-20T19:12:51.753Z,98737.00
2023-11-20T19:15:21.882Z,98737.00
2023-11-20T19:17:50.641Z,98734.25
2023-11-20T19:20:19.275Z,98737.84
2023-11-20T19:22:50.905Z,98739.75
2023-11-20T19:25:24.232Z,98747.19
2023-11-20T19:27:53.544Z,98739.44
2023-11-20T19:30:23.949Z,98744.38
2023-11-20T19:32:52.913Z,98739.63
2023-11-20T19:35:22.584Z,98745.09
2023-11-20T19:37:52.155Z,98745.81
2023-11-20T19:40:23.823Z,98745.75
2023-11-20T19:42:53.427Z,98741.28
2023-11-20T19:45:22.633Z,98744.25
2023-11-20T19:47:51.354Z,98733.75
2023-11-20T19:50:19.752Z,98738.44
2023-11-20T19:52:48.180Z,98735.69
2023-11-20T19:55:17.347Z,98733.22
2023-11-20T19:57:47.497Z,98739.03
2023-11-20T20:00:18.671Z,98734.94
2023-11-20T20:02:48.970Z,98736.38
2023-11-20T20:05:19.197Z,98735.03
2023-11-20T20:07:49.711Z,98741.66
2023-11-20T20:10:19.350Z,98745.00
2023-11-20T20:12:49.577Z,98742.03
2023-11-20T20:15:18.217Z,98743.13
2023-11-20T20:17:47.810Z,98753.63
2023-11-20T20:20:18.639Z,98741.25
2023-11-20T20:22:47.622Z,98741.56
2023-11-20T20:25:19.112Z,98737.16
2023-11-20T20:27:49.019Z,98739.91
2023-11-20T20:30:18.640Z,98745.44
2023-11-20T20:32:48.902Z,98744.31
2023-11-20T20:35:18.394Z,98743.50
2023-11-20T20:37:47.640Z,98743.81
2023-11-20T20:40:23.564Z,98744.91
2023-11-20T20:42:53.638Z,98742.75
2023-11-20T20:45:23.917Z,98743.88
2023-11-20T20:47:52.489Z,98745.78
2023-11-20T20:50:21.935Z,98741.69
2023-11-20T20:52:50.399Z,98744.75
2023-11-20T20:55:19.553Z,98747.00
2023-11-20T20:57:49.424Z,98751.97
2023-11-20T21:00:21.368Z,98747.88
2023-11-20T21:02:51.315Z,98748.97
2023-11-20T21:05:19.926Z,98742.13
2023-11-20T21:07:48.349Z,98746.28
2023-11-20T21:10:17.591Z,98741.91
2023-11-20T21:12:46.139Z,98743.63
2023-11-20T21:15:15.799Z,98736.75
2023-11-20T21:17:47.206Z,98737.03
2023-11-20T21:20:16.324Z,98740.09
2023-11-20T21:22:45.895Z,98734.38
2023-11-20T21:25:15.208Z,98742.63
2023-11-20T21:27:44.932Z,98747.31
2023-11-20T21:30:14.872Z,98745.66
2023-11-20T21:32:45.220Z,98756.41
2023-11-20T21:35:13.991Z,98750.59
2023-11-20T21:37:42.666Z,98761.03
2023-11-20T21:40:12.668Z,98762.97
2023-11-20T21:42:41.321Z,98751.94
2023-11-20T21:45:11.460Z,98753.34
2023-11-20T21:47:39.862Z,98762.13
2023-11-20T21:50:11.113Z,98743.16
2023-11-20T21:52:39.825Z,98745.09
2023-11-20T21:55:09.654Z,98740.97
2023-11-20T21:57:38.354Z,98755.84
2023-11-20T22:00:13.798Z,98758.91
2023-11-20T22:02:42.745Z,98755.34
2023-11-20T22:05:13.783Z,98758.38
2023-11-20T22:07:42.268Z,98751.53
2023-11-20T22:10:11.578Z,98755.41
2023-11-20T22:12:40.116Z,98763.97
2023-11-20T22:15:12.014Z,98770.28
2023-11-20T22:17:40.424Z,98753.25
2023-11-20T22:20:12.746Z,98762.91
2023-11-20T22:22:43.266Z,98760.16
2023-11-20T22:25:13.528Z,98762.91
2023-11-20T22:27:42.460Z,98763.44
2023-11-20T22:30:11.823Z,98758.97
2023-11-20T22:32:40.488Z,98763.31
2023-11-20T22:35:14.364Z,98765.19
2023-11-20T22:37:48.233Z,98767.59
2023-11-20T22:40:17.853Z,98769.16
2023-11-20T22:42:47.810Z,98763.59
2023-11-20T22:45:16.394Z,98765.47
2023-11-20T22:47:44.801Z,98765.72
2023-11-20T22:50:13.281Z,98765.41
2023-11-20T22:52:41.674Z,98768.38
2023-11-20T22:55:11.947Z,98763.94
2023-11-20T22:57:40.469Z,98770.19
2023-11-20T23:00:15.929Z,98766.53
2023-11-20T23:02:44.375Z,98765.38
2023-11-20T23:05:14.974Z,98762.50
2023-11-20T23:07:43.461Z,98762.44
2023-11-20T23:12:44.129Z,98754.34
2023-11-20T23:15:15.876Z,98766.41
2023-11-20T23:17:44.990Z,98758.34
2023-11-20T23:20:19.747Z,98759.91
2023-11-20T23:22:49.012Z,98757.06
2023-11-20T23:25:20.994Z,98755.63
2023-11-20T23:27:51.066Z,98755.91
2023-11-20T23:30:22.525Z,98752.56
2023-11-20T23:32:51.672Z,98747.56
2023-11-20T23:35:20.441Z,98743.66
2023-11-20T23:37:48.901Z,98743.66
2023-11-20T23:40:19.128Z,98752.25
2023-11-20T23:42:47.704Z,98748.66
2023-11-20T23:45:16.133Z,98744.88
2023-11-20T23:47:44.616Z,98743.81
2023-11-20T23:50:13.228Z,98741.13
2023-11-20T23:52:41.608Z,98738.75
2023-11-20T23:55:10.871Z,98738.00
2023-11-20T23:57:41.809Z,98737.03
